sensor_id;sensor_type;location;lat;lon;timestamp;temperature;humidity
15596;DHT22;7898;48.658;9.068;2023-11-21T00:01:19;6.90;99.90
15596;DHT22;7898;48.658;9.068;2023-11-21T00:03:47;6.90;99.90
15596;DHT22;7898;48.658;9.068;2023-11-21T00:06:14;6.90;99.90
15596;DHT22;7898;48.658;9.068;2023-11-21T00:08:41;6.90;99.90
15596;DHT22;7898;48.658;9.068;2023-11-21T00:11:08;6.90;99.90
15596;DHT22;7898;48.658;9.068;2023-11-21T00:13:34;6.90;99.90
15596;DHT22;7898;48.658;9.068;2023-11-21T00:16:01;7.00;99.90
15596;DHT22;7898;48.658;9.068;2023-11-21T00:18:29;7.00;99.90
15596;DHT22;7898;48.658;9.068;2023-11-21T00:20:58;7.00;99.90
15596;DHT22;7898;48.658;9.068;2023-11-21T00:23:24;7.00;99.90
15596;DHT22;7898;48.658;9.068;2023-11-21T00:25:51;7.10;99.90
15596;DHT22;7898;48.658;9.068;2023-11-21T00:28:18;7.20;99.90
15596;DHT22;7898;48.658;9.068;2023-11-21T00:30:45;7.20;99.90
15596;DHT22;7898;48.658;9.068;2023-11-21T00:33:12;7.30;99.90
15596;DHT22;7898;48.658;9.068;2023-11-21T00:35:39;7.30;99.90
15596;DHT22;7898;48.658;9.068;2023-11-21T00:38:07;7.30;99.90
15596;DHT22;7898;48.658;9.068;2023-11-21T00:40:35;7.40;99.90
15596;DHT22;7898;48.658;9.068;2023-11-21T00:43:01;7.40;99.90
15596;DHT22;7898;48.658;9.068;2023-11-21T00:45:28;7.40;99.90
15596;DHT22;7898;48.658;9.068;2023-11-21T00:47:55;7.40;99.90
15596;DHT22;7898;48.658;9.068;2023-11-21T00:50:23;7.40;99.90
15596;DHT22;7898;48.658;9.068;2023-11-21T00:52:50;7.40;99.90
15596;DHT22;7898;48.658;9.068;2023-11-21T00:55:19;7.30;99.90
15596;DHT22;7898;48.658;9.068;2023-11-21T00:57:46;7.40;99.90
15596;DHT22;7898;48.658;9.068;2023-11-21T01:00:14;7.50;99.90
15596;DHT22;7898;48.658;9.068;2023-11-21T01:02:43;7.50;99.90
15596;DHT22;7898;48.658;9.068;2023-11-21T01:05:10;7.40;99.90
15596;DHT22;7898;48.658;9.068;2023-11-21T01:07:37;7.50;99.90
15596;DHT22;7898;48.658;9.068;2023-11-21T01:10:04;7.50;99.90
15596;DHT22;7898;48.658;9.068;2023-11-21T01:12:34;7.50;99.90
15596;DHT22;7898;48.658;9.068;2023-11-21T01:15:01;7.50;99.90
15596;DHT22;7898;48.658;9.068;2023-11-21T01:17:28;7.50;99.90
15596;DHT22;7898;48.658;9.068;2023-11-21T01:19:55;7.50;99.90
15596;DHT22;7898;48.658;9.068;2023-11-21T01:22:23;7.50;99.90
15596;DHT22;7898;48.658;9.068;2023-11-21T01:24:51;7.40;99.90
15596;DHT22;7898;48.658;9.068;2023-11-21T01:27:18;7.40;99.90
15596;DHT22;7898;48.658;9.068;2023-11-21T01:29:46;7.40;99.90
15596;DHT22;7898;48.658;9.068;2023-11-21T01:32:13;7.30;99.90
15596;DHT22;7898;48.658;9.068;2023-11-21T01:34:40;7.30;99.90
15596;DHT22;7898;48.658;9.068;2023-11-21T01:37:07;7.30;99.90
15596;DHT22;7898;48.658;9.068;2023-11-21T01:39:37;7.40;99.90
15596;DHT22;7898;48.658;9.068;2023-11-21T01:42:05;7.30;99.90
15596;DHT22;7898;48.658;9.068;2023-11-21T01:44:33;7.30;99.90
15596;DHT22;7898;48.658;9.068;2023-11-21T01:47:01;7.30;99.90
15596;DHT22;7898;48.658;9.068;2023-11-21T01:49:30;7.30;99.90
15596;DHT22;7898;48.658;9.068;2023-11-21T01:51:58;7.30;99.90
15596;DHT22;7898;48.658;9.068;2023-11-21T01:54:25;7.30;99.90
15596;DHT22;7898;48.658;9.068;2023-11-21T01:56:52;7.30;99.90
15596;DHT22;7898;48.658;9.068;2023-11-21T01:59:21;7.30;99.90
15596;DHT22;7898;48.658;9.068;2023-11-21T02:01:48;7.30;99.90
15596;DHT22;7898;48.658;9.068;2023-11-21T02:04:17;7.30;99.90
15596;DHT22;7898;48.658;9.068;2023-11-21T02:06:44;7.40;99.90
15596;DHT22;7898;48.658;9.068;2023-11-21T02:09:11;7.30;99.90
15596;DHT22;7898;48.658;9.068;2023-11-21T02:11:40;7.30;99.90
15596;DHT22;7898;48.658;9.068;2023-11-21T02:14:08;7.30;99.90
15596;DHT22;7898;48.658;9.068;2023-11-21T02:16:35;7.30;99.90
15596;DHT22;7898;48.658;9.068;2023-11-21T02:19:03;7.30;99.90
15596;DHT22;7898;48.658;9.068;2023-11-21T02:21:36;7.30;99.90
15596;DHT22;7898;48.658;9.068;2023-11-21T02:24:08;7.30;99.90
15596;DHT22;7898;48.658;9.068;2023-11-21T02:26:35;7.20;99.90
15596;DHT22;7898;48.658;9.068;2023-11-21T02:29:02;7.20;99.90
15596;DHT22;7898;48.658;9.068;2023-11-21T02:31:30;7.10;99.90
15596;DHT22;7898;48.658;9.068;2023-11-21T02:33:58;7.10;99.90
15596;DHT22;7898;48.658;9.068;2023-11-21T02:36:25;7.10;99.90
15596;DHT22;7898;48.658;9.068;2023-11-21T02:38:52;7.10;99.90
15596;DHT22;7898;48.658;9.068;2023-11-21T02:41:20;7.10;99.90
15596;DHT22;7898;48.658;9.068;2023-11-21T02:43:47;7.00;99.90
15596;DHT22;7898;48.658;9.068;2023-11-21T02:46:13;7.00;99.90
15596;DHT22;7898;48.658;9.068;2023-11-21T02:48:40;7.00;99.90
15596;DHT22;7898;48.658;9.068;2023-11-21T02:51:07;7.00;99.90
15596;DHT22;7898;48.658;9.068;2023-11-21T02:53:34;7.10;99.90
15596;DHT22;7898;48.658;9.068;2023-11-21T02:56:01;7.00;99.90
15596;DHT22;7898;48.658;9.068;2023-11-21T02:58:29;7.10;99.90
15596;DHT22;7898;48.658;9.068;2023-11-21T03:00:56;7.10;99.90
15596;DHT22;7898;48.658;9.068;2023-11-21T03:03:23;7.10;99.90
15596;DHT22;7898;48.658;9.068;2023-11-21T03:05:51;7.00;99.90
15596;DHT22;7898;48.658;9.068;2023-11-21T03:08:17;7.10;99.90
15596;DHT22;7898;48.658;9.068;2023-11-21T03:10:44;7.10;99.90
15596;DHT22;7898;48.658;9.068;2023-11-21T03:13:11;7.10;99.90
15596;DHT22;7898;48.658;9.068;2023-11-21T03:15:41;7.00;99.90
15596;DHT22;7898;48.658;9.068;2023-11-21T03:18:08;7.00;99.90
15596;DHT22;7898;48.658;9.068;2023-11-21T03:20:35;7.00;99.90
15596;DHT22;7898;48.658;9.068;2023-11-21T03:23:02;7.00;99.90
15596;DHT22;7898;48.658;9.068;2023-11-21T03:25:30;7.00;99.90
15596;DHT22;7898;48.658;9.068;2023-11-21T03:27:57;6.90;99.90
15596;DHT22;7898;48.658;9.068;2023-11-21T03:30:24;7.00;99.90
15596;DHT22;7898;48.658;9.068;2023-11-21T03:32:52;6.90;99.90
15596;DHT22;7898;48.658;9.068;2023-11-21T03:35:19;6.90;99.90
15596;DHT22;7898;48.658;9.068;2023-11-21T03:37:46;6.90;99.90
15596;DHT22;7898;48.658;9.068;2023-11-21T03:40:13;6.90;99.90
15596;DHT22;7898;48.658;9.068;2023-11-21T03:42:40;6.90;99.90
15596;DHT22;7898;48.658;9.068;2023-11-21T03:45:08;6.90;99.90
15596;DHT22;7898;48.658;9.068;2023-11-21T03:47:35;6.90;99.90
15596;DHT22;7898;48.658;9.068;2023-11-21T03:50:04;6.90;99.90
15596;DHT22;7898;48.658;9.068;2023-11-21T03:52:31;6.90;99.90
15596;DHT22;7898;48.658;9.068;2023-11-21T03:54:58;6.90;99.90
15596;DHT22;7898;48.658;9.068;2023-11-21T03:57:25;7.00;99.90
15596;DHT22;7898;48.658;9.068;2023-11-21T03:59:53;7.00;99.90
15596;DHT22;7898;48.658;9.068;2023-11-21T04:02:20;7.00;99.90
15596;DHT22;7898;48.658;9.068;2023-11-21T04:04:47;7.00;99.90
15596;DHT22;7898;48.658;9.068;2023-11-21T04:07:15;7.00;99.90
15596;DHT22;7898;48.658;9.068;2023-11-21T04:09:43;7.00;99.90
15596;DHT22;7898;48.658;9.068;2023-11-21T04:12:09;7.00;99.90
15596;DHT22;7898;48.658;9.068;2023-11-21T04:14:36;7.00;99.90
15596;DHT22;7898;48.658;9.068;2023-11-21T04:17:03;7.00;99.90
15596;DHT22;7898;48.658;9.068;2023-11-21T04:19:30;7.00;99.90
15596;DHT22;7898;48.658;9.068;2023-11-21T04:21:57;6.90;99.90
15596;DHT22;7898;48.658;9.068;2023-11-21T04:24:25;7.00;99.90
15596;DHT22;7898;48.658;9.068;2023-11-21T04:26:52;7.00;99.90
15596;DHT22;7898;48.658;9.068;2023-11-21T04:29:20;7.00;99.90
15596;DHT22;7898;48.658;9.068;2023-11-21T04:31:46;7.00;99.90
15596;DHT22;7898;48.658;9.068;2023-11-21T04:34:14;7.00;99.90
15596;DHT22;7898;48.658;9.068;2023-11-21T04:36:41;7.00;99.90
15596;DHT22;7898;48.658;9.068;2023-11-21T04:39:08;7.10;99.90
15596;DHT22;7898;48.658;9.068;2023-11-21T04:41:36;7.10;99.90
15596;DHT22;7898;48.658;9.068;2023-11-21T04:44:05;7.10;99.90
15596;DHT22;7898;48.658;9.068;2023-11-21T04:46:32;7.20;99.90
15596;DHT22;7898;48.658;9.068;2023-11-21T04:48:59;7.10;99.90
15596;DHT22;7898;48.658;9.068;2023-11-21T04:51:26;7.10;99.90
15596;DHT22;7898;48.658;9.068;2023-11-21T04:53:53;7.10;99.90
15596;DHT22;7898;48.658;9.068;2023-11-21T04:56:20;7.10;99.90
15596;DHT22;7898;48.658;9.068;2023-11-21T04:58:48;7.00;99.90
15596;DHT22;7898;48.658;9.068;2023-11-21T05:01:15;7.10;99.90
15596;DHT22;7898;48.658;9.068;2023-11-21T05:03:42;7.00;99.90
15596;DHT22;7898;48.658;9.068;2023-11-21T05:06:10;7.00;99.90
15596;DHT22;7898;48.658;9.068;2023-11-21T05:08:36;7.00;99.90
15596;DHT22;7898;48.658;9.068;2023-11-21T05:11:04;7.00;99.90
15596;DHT22;7898;48.658;9.068;2023-11-21T05:13:34;7.00;99.90
15596;DHT22;7898;48.658;9.068;2023-11-21T05:16:02;7.00;99.90
15596;DHT22;7898;48.658;9.068;2023-11-21T05:18:31;7.00;99.90
15596;DHT22;7898;48.658;9.068;2023-11-21T05:20:59;7.00;99.90
15596;DHT22;7898;48.658;9.068;2023-11-21T05:23:26;7.10;99.90
15596;DHT22;7898;48.658;9.068;2023-11-21T05:25:53;7.10;99.90
15596;DHT22;7898;48.658;9.068;2023-11-21T05:28:22;7.10;99.90
15596;DHT22;7898;48.658;9.068;2023-11-21T05:30:48;7.00;99.90
15596;DHT22;7898;48.658;9.068;2023-11-21T05:33:17;7.00;99.90
15596;DHT22;7898;48.658;9.068;2023-11-21T05:35:44;7.10;99.90
15596;DHT22;7898;48.658;9.068;2023-11-21T05:38:11;7.10;99.90
15596;DHT22;7898;48.658;9.068;2023-11-21T05:40:38;7.00;99.90
15596;DHT22;7898;48.658;9.068;2023-11-21T05:43:05;7.10;99.90
15596;DHT22;7898;48.658;9.068;2023-11-21T05:45:32;7.10;99.90
15596;DHT22;7898;48.658;9.068;2023-11-21T05:47:59;7.00;99.90
15596;DHT22;7898;48.658;9.068;2023-11-21T05:50:27;7.10;99.90
15596;DHT22;7898;48.658;9.068;2023-11-21T05:52:54;7.00;99.90
15596;DHT22;7898;48.658;9.068;2023-11-21T05:55:22;7.00;99.90
15596;DHT22;7898;48.658;9.068;2023-11-21T05:57:51;7.00;99.90
15596;DHT22;7898;48.658;9.068;2023-11-21T06:00:18;6.90;99.90
15596;DHT22;7898;48.658;9.068;2023-11-21T06:02:47;6.90;99.90
15596;DHT22;7898;48.658;9.068;2023-11-21T06:05:16;6.90;99.90
15596;DHT22;7898;48.658;9.068;2023-11-21T06:07:45;6.90;99.90
15596;DHT22;7898;48.658;9.068;2023-11-21T06:10:12;6.90;99.90
15596;DHT22;7898;48.658;9.068;2023-11-21T06:12:40;6.90;99.90
15596;DHT22;7898;48.658;9.068;2023-11-21T06:15:09;6.90;99.90
15596;DHT22;7898;48.658;9.068;2023-11-21T06:17:42;7.00;99.90
15596;DHT22;7898;48.658;9.068;2023-11-21T06:20:12;7.00;99.90
15596;DHT22;7898;48.658;9.068;2023-11-21T06:22:42;7.00;99.90
15596;DHT22;7898;48.658;9.068;2023-11-21T06:25:11;7.00;99.90
15596;DHT22;7898;48.658;9.068;2023-11-21T06:27:40;7.00;99.90
15596;DHT22;7898;48.658;9.068;2023-11-21T06:30:08;7.00;99.90
15596;DHT22;7898;48.658;9.068;2023-11-21T06:32:35;7.00;99.90
15596;DHT22;7898;48.658;9.068;2023-11-21T06:35:02;6.90;99.90
15596;DHT22;7898;48.658;9.068;2023-11-21T06:37:30;6.90;99.90
15596;DHT22;7898;48.658;9.068;2023-11-21T06:39:58;6.90;99.90
15596;DHT22;7898;48.658;9.068;2023-11-21T06:42:26;6.90;99.90
15596;DHT22;7898;48.658;9.068;2023-11-21T06:44:54;7.00;99.90
15596;DHT22;7898;48.658;9.068;2023-11-21T06:47:22;6.90;99.90
15596;DHT22;7898;48.658;9.068;2023-11-21T06:49:50;6.90;99.90
15596;DHT22;7898;48.658;9.068;2023-11-21T06:52:18;7.00;99.90
15596;DHT22;7898;48.658;9.068;2023-11-21T06:54:45;7.00;99.90
15596;DHT22;7898;48.658;9.068;2023-11-21T06:57:13;7.00;99.90
15596;DHT22;7898;48.658;9.068;2023-11-21T06:59:41;7.00;99.90
15596;DHT22;7898;48.658;9.068;2023-11-21T07:02:08;7.00;99.90
15596;DHT22;7898;48.658;9.068;2023-11-21T07:04:35;7.10;99.90
15596;DHT22;7898;48.658;9.068;2023-11-21T07:07:02;7.10;99.90
15596;DHT22;7898;48.658;9.068;2023-11-21T07:09:29;7.10;99.90
15596;DHT22;7898;48.658;9.068;2023-11-21T07:11:57;7.20;99.90
15596;DHT22;7898;48.658;9.068;2023-11-21T07:14:23;7.20;99.90
15596;DHT22;7898;48.658;9.068;2023-11-21T07:16:52;7.30;99.90
15596;DHT22;7898;48.658;9.068;2023-11-21T07:19:19;7.20;99.90
15596;DHT22;7898;48.658;9.068;2023-11-21T07:21:47;7.30;99.90
15596;DHT22;7898;48.658;9.068;2023-11-21T07:24:16;7.20;99.90
15596;DHT22;7898;48.658;9.068;2023-11-21T07:26:43;7.40;99.90
15596;DHT22;7898;48.658;9.068;2023-11-21T07:29:10;7.30;99.90
15596;DHT22;7898;48.658;9.068;2023-11-21T07:31:39;7.40;99.90
15596;DHT22;7898;48.658;9.068;2023-11-21T07:34:08;7.40;99.90
15596;DHT22;7898;48.658;9.068;2023-11-21T07:36:35;7.40;99.90
15596;DHT22;7898;48.658;9.068;2023-11-21T07:39:02;7.50;99.90
15596;DHT22;7898;48.658;9.068;2023-11-21T07:41:29;7.40;99.90
15596;DHT22;7898;48.658;9.068;2023-11-21T07:43:56;7.40;99.90
15596;DHT22;7898;48.658;9.068;2023-11-21T07:46:23;7.40;99.90
15596;DHT22;7898;48.658;9.068;2023-11-21T07:48:51;7.30;99.90
15596;DHT22;7898;48.658;9.068;2023-11-21T07:51:20;7.40;99.90
15596;DHT22;7898;48.658;9.068;2023-11-21T07:53:47;7.50;99.90
15596;DHT22;7898;48.658;9.068;2023-11-21T07:56:15;7.60;99.90
15596;DHT22;7898;48.658;9.068;2023-11-21T07:58:42;7.50;99.90
15596;DHT22;7898;48.658;9.068;2023-11-21T08:01:09;7.60;99.90
15596;DHT22;7898;48.658;9.068;2023-11-21T08:03:35;7.60;99.90
15596;DHT22;7898;48.658;9.068;2023-11-21T08:06:03;7.60;99.90
15596;DHT22;7898;48.658;9.068;2023-11-21T08:08:32;7.60;99.90
15596;DHT22;7898;48.658;9.068;2023-11-21T08:10:59;7.60;99.90
15596;DHT22;7898;48.658;9.068;2023-11-21T08:13:28;7.60;99.90
15596;DHT22;7898;48.658;9.068;2023-11-21T08:15:57;7.60;99.90
15596;DHT22;7898;48.658;9.068;2023-11-21T08:18:27;7.60;99.90
15596;DHT22;7898;48.658;9.068;2023-11-21T08:20:54;7.70;99.90
15596;DHT22;7898;48.658;9.068;2023-11-21T08:23:21;7.70;99.90
15596;DHT22;7898;48.658;9.068;2023-11-21T08:25:53;7.70;99.90
15596;DHT22;7898;48.658;9.068;2023-11-21T08:28:20;7.90;99.90
15596;DHT22;7898;48.658;9.068;2023-11-21T08:30:47;7.70;99.90
15596;DHT22;7898;48.658;9.068;2023-11-21T08:33:14;7.90;99.90
15596;DHT22;7898;48.658;9.068;2023-11-21T08:35:41;8.00;99.90
15596;DHT22;7898;48.658;9.068;2023-11-21T08:38:08;8.00;99.90
15596;DHT22;7898;48.658;9.068;2023-11-21T08:40:35;8.10;99.90
15596;DHT22;7898;48.658;9.068;2023-11-21T08:43:03;8.10;99.90
15596;DHT22;7898;48.658;9.068;2023-11-21T08:45:31;8.20;99.90
15596;DHT22;7898;48.658;9.068;2023-11-21T08:47:59;8.30;99.90
15596;DHT22;7898;48.658;9.068;2023-11-21T08:50:26;8.40;99.90
15596;DHT22;7898;48.658;9.068;2023-11-21T08:52:53;8.40;99.90
15596;DHT22;7898;48.658;9.068;2023-11-21T08:55:21;8.50;99.90
15596;DHT22;7898;48.658;9.068;2023-11-21T08:57:48;8.70;99.90
15596;DHT22;7898;48.658;9.068;2023-11-21T09:00:17;8.90;99.90
15596;DHT22;7898;48.658;9.068;2023-11-21T09:02:44;8.90;99.90
15596;DHT22;7898;48.658;9.068;2023-11-21T09:05:12;9.10;99.90
15596;DHT22;7898;48.658;9.068;2023-11-21T09:07:41;9.20;99.90
15596;DHT22;7898;48.658;9.068;2023-11-21T09:10:09;9.20;99.90
15596;DHT22;7898;48.658;9.068;2023-11-21T09:12:37;9.20;99.90
15596;DHT22;7898;48.658;9.068;2023-11-21T09:15:05;9.10;99.90
15596;DHT22;7898;48.658;9.068;2023-11-21T09:17:34;9.00;99.90
15596;DHT22;7898;48.658;9.068;2023-11-21T09:20:01;9.00;99.90
15596;DHT22;7898;48.658;9.068;2023-11-21T09:22:31;8.90;99.90
15596;DHT22;7898;48.658;9.068;2023-11-21T09:24:58;8.90;99.90
15596;DHT22;7898;48.658;9.068;2023-11-21T09:27:25;8.90;99.90
15596;DHT22;7898;48.658;9.068;2023-11-21T09:29:52;8.90;99.90
15596;DHT22;7898;48.658;9.068;2023-11-21T09:32:19;8.90;99.90
15596;DHT22;7898;48.658;9.068;2023-11-21T09:34:48;8.90;99.90
15596;DHT22;7898;48.658;9.068;2023-11-21T09:37:15;8.90;99.90
15596;DHT22;7898;48.658;9.068;2023-11-21T09:39:42;9.00;99.90
15596;DHT22;7898;48.658;9.068;2023-11-21T09:42:11;9.00;99.90
15596;DHT22;7898;48.658;9.068;2023-11-21T09:44:45;9.00;99.90
15596;DHT22;7898;48.658;9.068;2023-11-21T09:47:15;9.00;99.90
15596;DHT22;7898;48.658;9.068;2023-11-21T09:49:48;9.10;99.90
15596;DHT22;7898;48.658;9.068;2023-11-21T09:52:21;9.20;99.90
15596;DHT22;7898;48.658;9.068;2023-11-21T09:54:51;9.30;99.90
15596;DHT22;7898;48.658;9.068;2023-11-21T09:57:20;8.80;99.90
15596;DHT22;7898;48.658;9.068;2023-11-21T09:59:51;9.40;99.90
15596;DHT22;7898;48.658;9.068;2023-11-21T10:02:22;9.40;99.90
15596;DHT22;7898;48.658;9.068;2023-11-21T10:04:53;9.50;99.90
15596;DHT22;7898;48.658;9.068;2023-11-21T10:07:21;9.50;99.90
15596;DHT22;7898;48.658;9.068;2023-11-21T10:09:48;9.50;99.90
15596;DHT22;7898;48.658;9.068;2023-11-21T10:12:15;9.50;99.90
15596;DHT22;7898;48.658;9.068;2023-11-21T10:14:43;9.40;99.90
15596;DHT22;7898;48.658;9.068;2023-11-21T10:17:13;9.40;99.90
15596;DHT22;7898;48.658;9.068;2023-11-21T10:19:42;9.50;99.90
15596;DHT22;7898;48.658;9.068;2023-11-21T10:22:12;9.40;99.90
15596;DHT22;7898;48.658;9.068;2023-11-21T10:24:40;9.40;99.90
15596;DHT22;7898;48.658;9.068;2023-11-21T10:27:09;9.20;99.90
15596;DHT22;7898;48.658;9.068;2023-11-21T10:29:36;9.10;99.90
15596;DHT22;7898;48.658;9.068;2023-11-21T10:32:03;9.10;99.90
15596;DHT22;7898;48.658;9.068;2023-11-21T10:34:31;9.10;99.90
15596;DHT22;7898;48.658;9.068;2023-11-21T10:36:58;9.10;99.90
15596;DHT22;7898;48.658;9.068;2023-11-21T10:39:26;9.30;99.90
15596;DHT22;7898;48.658;9.068;2023-11-21T10:41:56;9.00;99.90
15596;DHT22;7898;48.658;9.068;2023-11-21T10:44:23;9.00;99.90
15596;DHT22;7898;48.658;9.068;2023-11-21T10:46:52;9.00;99.90
15596;DHT22;7898;48.658;9.068;2023-11-21T10:49:22;9.00;99.90
15596;DHT22;7898;48.658;9.068;2023-11-21T10:51:50;8.90;99.90
15596;DHT22;7898;48.658;9.068;2023-11-21T10:54:19;8.90;99.90
15596;DHT22;7898;48.658;9.068;2023-11-21T10:56:50;8.80;99.90
15596;DHT22;7898;48.658;9.068;2023-11-21T10:59:18;8.90;99.90
15596;DHT22;7898;48.658;9.068;2023-11-21T11:01:46;8.90;99.90
15596;DHT22;7898;48.658;9.068;2023-11-21T11:04:15;8.80;99.90
15596;DHT22;7898;48.658;9.068;2023-11-21T11:06:45;8.80;99.90
15596;DHT22;7898;48.658;9.068;2023-11-21T11:09:17;8.80;99.90
15596;DHT22;7898;48.658;9.068;2023-11-21T11:11:44;8.70;99.90
15596;DHT22;7898;48.658;9.068;2023-11-21T11:14:12;8.80;99.90
15596;DHT22;7898;48.658;9.068;2023-11-21T11:16:41;8.70;99.90
15596;DHT22;7898;48.658;9.068;2023-11-21T11:19:08;8.70;99.90
15596;DHT22;7898;48.658;9.068;2023-11-21T11:21:46;8.80;99.90
15596;DHT22;7898;48.658;9.068;2023-11-21T11:24:36;8.80;99.90
15596;DHT22;7898;48.658;9.068;2023-11-21T11:27:15;8.80;99.90
15596;DHT22;7898;48.658;9.068;2023-11-21T11:29:56;8.80;99.90
15596;DHT22;7898;48.658;9.068;2023-11-21T11:32:43;8.80;99.90
15596;DHT22;7898;48.658;9.068;2023-11-21T11:35:22;8.80;99.90
15596;DHT22;7898;48.658;9.068;2023-11-21T11:37:51;8.80;99.90
15596;DHT22;7898;48.658;9.068;2023-11-21T11:40:18;8.90;99.90
15596;DHT22;7898;48.658;9.068;2023-11-21T11:42:56;8.80;99.90
15596;DHT22;7898;48.658;9.068;2023-11-21T11:45:32;8.90;99.90
15596;DHT22;7898;48.658;9.068;2023-11-21T11:48:00;8.90;99.90
15596;DHT22;7898;48.658;9.068;2023-11-21T11:50:27;8.90;99.90
15596;DHT22;7898;48.658;9.068;2023-11-21T11:55:58;9.00;99.90
15596;DHT22;7898;48.658;9.068;2023-11-21T11:58:46;8.90;99.90
15596;DHT22;7898;48.658;9.068;2023-11-21T12:01:16;8.90;99.90
15596;DHT22;7898;48.658;9.068;2023-11-21T12:03:44;9.00;99.90
15596;DHT22;7898;48.658;9.068;2023-11-21T12:06:12;8.90;99.90
15596;DHT22;7898;48.658;9.068;2023-11-21T12:08:39;9.10;99.90
15596;DHT22;7898;48.658;9.068;2023-11-21T12:11:08;9.10;99.90
15596;DHT22;7898;48.658;9.068;2023-11-21T12:13:36;9.10;99.90
15596;DHT22;7898;48.658;9.068;2023-11-21T12:16:04;9.20;99.90
15596;DHT22;7898;48.658;9.068;2023-11-21T12:18:34;9.30;99.90
15596;DHT22;7898;48.658;9.068;2023-11-21T12:21:04;9.50;99.90
15596;DHT22;7898;48.658;9.068;2023-11-21T12:23:34;9.50;99.90
15596;DHT22;7898;48.658;9.068;2023-11-21T12:26:01;9.60;99.90
15596;DHT22;7898;48.658;9.068;2023-11-21T12:28:29;9.70;99.90
15596;DHT22;7898;48.658;9.068;2023-11-21T12:30:55;9.70;99.90
15596;DHT22;7898;48.658;9.068;2023-11-21T12:33:23;9.60;99.90
15596;DHT22;7898;48.658;9.068;2023-11-21T12:35:52;9.60;99.90
15596;DHT22;7898;48.658;9.068;2023-11-21T12:38:19;9.70;99.90
15596;DHT22;7898;48.658;9.068;2023-11-21T12:40:46;9.60;99.90
15596;DHT22;7898;48.658;9.068;2023-11-21T12:43:13;9.60;99.90
15596;DHT22;7898;48.658;9.068;2023-11-21T12:45:40;9.50;99.90
15596;DHT22;7898;48.658;9.068;2023-11-21T12:48:07;9.50;99.90
15596;DHT22;7898;48.658;9.068;2023-11-21T12:50:37;9.50;99.90
15596;DHT22;7898;48.658;9.068;2023-11-21T12:53:07;9.50;99.90
15596;DHT22;7898;48.658;9.068;2023-11-21T12:55:35;9.50;99.90
15596;DHT22;7898;48.658;9.068;2023-11-21T12:58:04;9.40;99.90
15596;DHT22;7898;48.658;9.068;2023-11-21T13:00:36;9.40;99.90
15596;DHT22;7898;48.658;9.068;2023-11-21T13:03:04;9.30;99.90
15596;DHT22;7898;48.658;9.068;2023-11-21T13:05:33;9.30;99.90
15596;DHT22;7898;48.658;9.068;2023-11-21T13:08:01;9.30;99.90
15596;DHT22;7898;48.658;9.068;2023-11-21T13:10:31;9.30;99.90
15596;DHT22;7898;48.658;9.068;2023-11-21T13:13:02;9.30;99.90
15596;DHT22;7898;48.658;9.068;2023-11-21T13:15:31;9.30;99.90
15596;DHT22;7898;48.658;9.068;2023-11-21T13:18:00;9.50;99.90
15596;DHT22;7898;48.658;9.068;2023-11-21T13:20:27;9.50;99.90
15596;DHT22;7898;48.658;9.068;2023-11-21T13:22:56;9.70;99.90
15596;DHT22;7898;48.658;9.068;2023-11-21T13:25:24;9.70;99.90
15596;DHT22;7898;48.658;9.068;2023-11-21T13:27:54;9.80;99.90
15596;DHT22;7898;48.658;9.068;2023-11-21T13:30:22;9.90;99.90
15596;DHT22;7898;48.658;9.068;2023-11-21T13:32:53;10.00;99.90
15596;DHT22;7898;48.658;9.068;2023-11-21T13:35:23;10.00;99.90
15596;DHT22;7898;48.658;9.068;2023-11-21T13:37:57;10.00;99.90
15596;DHT22;7898;48.658;9.068;2023-11-21T13:40:26;9.90;99.90
15596;DHT22;7898;48.658;9.068;2023-11-21T13:42:54;10.00;99.90
15596;DHT22;7898;48.658;9.068;2023-11-21T13:45:25;10.00;99.90
15596;DHT22;7898;48.658;9.068;2023-11-21T13:47:54;10.10;99.90
15596;DHT22;7898;48.658;9.068;2023-11-21T13:50:23;10.00;99.90
15596;DHT22;7898;48.658;9.068;2023-11-21T13:52:54;9.80;99.90
15596;DHT22;7898;48.658;9.068;2023-11-21T13:55:21;9.60;99.90
15596;DHT22;7898;48.658;9.068;2023-11-21T13:57:51;9.30;99.90
15596;DHT22;7898;48.658;9.068;2023-11-21T14:00:19;9.20;99.90
15596;DHT22;7898;48.658;9.068;2023-11-21T14:03:15;9.00;99.90
15596;DHT22;7898;48.658;9.068;2023-11-21T14:05:47;8.90;99.90
15596;DHT22;7898;48.658;9.068;2023-11-21T14:08:18;8.80;99.90
15596;DHT22;7898;48.658;9.068;2023-11-21T14:10:46;8.70;99.90
15596;DHT22;7898;48.658;9.068;2023-11-21T14:13:17;8.70;99.90
15596;DHT22;7898;48.658;9.068;2023-11-21T14:15:46;8.70;99.90
15596;DHT22;7898;48.658;9.068;2023-11-21T14:18:16;8.80;99.90
15596;DHT22;7898;48.658;9.068;2023-11-21T14:20:51;8.70;99.90
15596;DHT22;7898;48.658;9.068;2023-11-21T14:23:18;8.70;99.90
15596;DHT22;7898;48.658;9.068;2023-11-21T14:25:47;8.70;99.90
15596;DHT22;7898;48.658;9.068;2023-11-21T14:28:13;8.70;99.90
15596;DHT22;7898;48.658;9.068;2023-11-21T14:30:41;8.70;99.90
15596;DHT22;7898;48.658;9.068;2023-11-21T14:33:09;8.70;99.90
15596;DHT22;7898;48.658;9.068;2023-11-21T14:35:37;8.70;99.90
15596;DHT22;7898;48.658;9.068;2023-11-21T14:38:04;8.70;99.90
15596;DHT22;7898;48.658;9.068;2023-11-21T14:40:31;8.70;99.90
15596;DHT22;7898;48.658;9.068;2023-11-21T14:43:01;8.70;99.90
15596;DHT22;7898;48.658;9.068;2023-11-21T14:45:31;8.70;99.90
15596;DHT22;7898;48.658;9.068;2023-11-21T14:47:58;8.60;99.90
15596;DHT22;7898;48.658;9.068;2023-11-21T14:50:33;8.60;99.90
15596;DHT22;7898;48.658;9.068;2023-11-21T14:53:17;8.60;99.90
15596;DHT22;7898;48.658;9.068;2023-11-21T14:56:04;8.60;99.90
15596;DHT22;7898;48.658;9.068;2023-11-21T14:58:33;8.60;99.90
15596;DHT22;7898;48.658;9.068;2023-11-21T15:01:00;8.60;99.90
15596;DHT22;7898;48.658;9.068;2023-11-21T15:03:27;8.60;99.90
15596;DHT22;7898;48.658;9.068;2023-11-21T15:06:10;8.50;99.90
15596;DHT22;7898;48.658;9.068;2023-11-21T15:08:53;8.60;99.90
15596;DHT22;7898;48.658;9.068;2023-11-21T15:11:26;8.60;99.90
15596;DHT22;7898;48.658;9.068;2023-11-21T15:13:57;8.60;99.90
15596;DHT22;7898;48.658;9.068;2023-11-21T15:16:24;8.50;99.90
15596;DHT22;7898;48.658;9.068;2023-11-21T15:18:51;8.50;99.90
15596;DHT22;7898;48.658;9.068;2023-11-21T15:21:21;8.40;99.90
15596;DHT22;7898;48.658;9.068;2023-11-21T15:23:50;8.30;99.90
15596;DHT22;7898;48.658;9.068;2023-11-21T15:26:17;8.30;99.90
15596;DHT22;7898;48.658;9.068;2023-11-21T15:28:44;8.20;99.90
15596;DHT22;7898;48.658;9.068;2023-11-21T15:31:11;8.20;99.90
15596;DHT22;7898;48.658;9.068;2023-11-21T15:33:38;8.20;99.90
15596;DHT22;7898;48.658;9.068;2023-11-21T15:36:06;8.20;99.90
15596;DHT22;7898;48.658;9.068;2023-11-21T15:38:36;8.10;99.90
15596;DHT22;7898;48.658;9.068;2023-11-21T15:41:04;8.10;99.90
15596;DHT22;7898;48.658;9.068;2023-11-21T15:43:34;8.10;99.90
15596;DHT22;7898;48.658;9.068;2023-11-21T15:46:01;8.10;99.90
15596;DHT22;7898;48.658;9.068;2023-11-21T15:48:33;8.10;99.90
15596;DHT22;7898;48.658;9.068;2023-11-21T15:51:00;8.10;99.90
15596;DHT22;7898;48.658;9.068;2023-11-21T15:53:28;8.10;99.90
15596;DHT22;7898;48.658;9.068;2023-11-21T15:55:56;8.10;99.90
15596;DHT22;7898;48.658;9.068;2023-11-21T15:58:23;8.00;99.90
15596;DHT22;7898;48.658;9.068;2023-11-21T16:00:51;8.10;99.90
15596;DHT22;7898;48.658;9.068;2023-11-21T16:03:18;8.10;99.90
15596;DHT22;7898;48.658;9.068;2023-11-21T16:05:47;8.00;99.90
15596;DHT22;7898;48.658;9.068;2023-11-21T16:08:13;8.00;99.90
15596;DHT22;7898;48.658;9.068;2023-11-21T16:10:40;8.00;99.90
15596;DHT22;7898;48.658;9.068;2023-11-21T16:13:08;7.90;99.90